Time;durP1;ratioP1;P1;durP2;ratioP2;P2;SDS_P1;SDS_P2;PMS_P1;PMS_P2;Temp;Humidity;BMP_temperature;BMP_pressure;BME280_temperature;BME280_humidity;BME280_pressure;Samples;Min_cycle;Max_cycle;Signal;HPM_P1;HPM_P2
2021/01/14 00:01:42;;;;;;;38.00;22.53;;;;;;;0.80;76.62;97577.17;2151520;82;21099;-78
2021/01/14 00:04:44;;;;;;;41.87;23.10;;;;;;;0.81;76.46;97573.37;2151484;82;21327;-80
2021/01/14 00:07:45;;;;;;;39.43;22.90;;;;;;;0.82;76.37;97571.67;2151534;82;21126;-78
2021/01/14 00:10:46;;;;;;;38.67;23.10;;;;;;;0.84;76.28;97563.59;2150757;82;21111;-80
2021/01/14 00:13:47;;;;;;;42.80;24.40;;;;;;;0.83;76.22;97565.70;2150845;82;21139;-78
2021/01/14 00:16:48;;;;;;;36.47;23.43;;;;;;;0.81;76.15;97559.66;2151270;82;21115;-80
2021/01/14 00:19:49;;;;;;;39.83;23.53;;;;;;;0.86;76.15;97559.38;2151434;82;21504;-80
2021/01/14 00:22:50;;;;;;;42.93;24.77;;;;;;;0.88;76.14;97552.20;2151503;82;21123;-79
2021/01/14 00:25:51;;;;;;;44.60;24.10;;;;;;;0.89;75.90;97547.94;2151106;83;21151;-79
2021/01/14 00:28:52;;;;;;;38.03;23.63;;;;;;;0.88;75.88;97543.20;2151300;82;21453;-79
2021/01/14 00:31:54;;;;;;;38.97;24.37;;;;;;;0.90;75.88;97541.55;2151006;82;21175;-78
2021/01/14 00:34:55;;;;;;;41.40;23.73;;;;;;;0.92;75.88;97542.88;2151492;82;21150;-79
2021/01/14 00:37:56;;;;;;;38.60;22.83;;;;;;;0.95;75.89;97544.25;2152146;83;21150;-81
2021/01/14 00:40:58;;;;;;;40.87;24.50;;;;;;;0.98;75.73;97543.05;2151735;83;21139;-79
2021/01/14 00:43:59;;;;;;;43.50;24.23;;;;;;;0.97;75.76;97537.45;2151023;82;21103;-80
2021/01/14 00:47:00;;;;;;;38.97;24.67;;;;;;;1.00;75.71;97538.83;2151085;82;21142;-79
2021/01/14 00:50:02;;;;;;;45.07;24.43;;;;;;;0.96;75.52;97530.58;2151500;82;21174;-79
2021/01/14 00:53:09;;;;;;;42.90;24.13;;;;;;;0.94;75.59;97536.09;2163818;82;21389;-79
2021/01/14 00:56:10;;;;;;;41.67;23.70;;;;;;;0.90;75.59;97539.40;2161283;82;21249;-80
2021/01/14 00:59:11;;;;;;;43.67;25.10;;;;;;;0.89;75.66;97533.80;2161790;82;21245;-78
2021/01/14 01:02:13;;;;;;;42.53;24.33;;;;;;;0.93;75.65;97535.63;2161644;82;21099;-77
2021/01/14 01:05:14;;;;;;;47.93;25.47;;;;;;;0.95;75.63;97535.27;2160537;82;21241;-80
2021/01/14 01:08:15;;;;;;;48.70;25.80;;;;;;;0.95;75.57;97530.13;2161242;82;21277;-79
2021/01/14 01:11:16;;;;;;;47.40;25.87;;;;;;;0.95;75.54;97533.56;2160263;82;21249;-80
2021/01/14 01:14:17;;;;;;;48.07;27.27;;;;;;;0.92;75.47;97533.48;2160736;82;21273;-79
2021/01/14 01:17:18;;;;;;;44.47;25.47;;;;;;;0.94;75.63;97529.66;2161116;82;21245;-82
2021/01/14 01:20:19;;;;;;;48.80;28.77;;;;;;;0.95;75.60;97527.55;2160571;82;21111;-80
2021/01/14 01:23:20;;;;;;;54.87;28.33;;;;;;;0.98;75.54;97528.05;2160715;82;21351;-80
2021/01/14 01:26:21;;;;;;;51.07;29.73;;;;;;;0.94;75.43;97525.39;2161216;82;21258;-81
2021/01/14 01:29:22;;;;;;;58.67;28.23;;;;;;;0.92;75.57;97515.48;2161685;82;21297;-80
2021/01/14 01:32:24;;;;;;;55.60;29.90;;;;;;;0.93;75.61;97517.65;2161912;82;21244;-82
2021/01/14 01:35:25;;;;;;;57.73;30.13;;;;;;;0.91;75.69;97513.75;2161533;82;21564;-79
2021/01/14 01:38:26;;;;;;;56.37;29.20;;;;;;;0.95;75.70;97514.70;2161262;82;21120;-80
2021/01/14 01:41:27;;;;;;;56.77;28.77;;;;;;;0.97;75.75;97509.20;2161117;82;21249;-79
2021/01/14 01:44:28;;;;;;;54.20;29.27;;;;;;;0.99;75.61;97513.09;2161636;82;21571;-79
2021/01/14 01:47:33;;;;;;;51.37;26.57;;;;;;;0.99;75.62;97510.52;2161344;82;21265;-80
2021/01/14 01:50:34;;;;;;;;;;;;;;;0.99;75.61;97506.25;2164596;82;21552;-80
2021/01/14 01:53:35;;;;;;;53.20;26.80;;;;;;;0.96;75.55;97512.59;2168985;82;20224;-79
2021/01/14 01:56:36;;;;;;;52.90;28.33;;;;;;;0.98;75.70;97517.36;2161820;82;21520;-80
2021/01/14 01:59:37;;;;;;;54.10;29.07;;;;;;;1.00;75.69;97518.69;2161673;82;21322;-80
2021/01/14 02:02:38;;;;;;;51.57;28.53;;;;;;;0.99;75.62;97521.67;2162157;82;21134;-80
2021/01/14 02:05:39;;;;;;;57.20;30.73;;;;;;;1.01;75.61;97516.16;2162765;82;21174;-79
2021/01/14 02:08:40;;;;;;;60.93;33.53;;;;;;;1.03;75.70;97518.77;2162434;82;21166;-79
2021/01/14 02:11:45;;;;;;;54.13;31.67;;;;;;;1.04;75.67;97515.38;2161754;82;21265;-80
2021/01/14 02:14:46;;;;;;;62.70;32.95;;;;;;;1.04;75.72;97521.38;2161494;82;21262;-80
2021/01/14 02:17:47;;;;;;;60.43;31.93;;;;;;;1.05;75.66;97507.70;2161665;82;21124;-81
2021/01/14 02:20:48;;;;;;;57.80;31.40;;;;;;;1.05;75.55;97517.98;2161631;82;21264;-79
2021/01/14 02:23:49;;;;;;;59.43;30.17;;;;;;;1.04;75.56;97513.67;2161706;82;21395;-79
2021/01/14 02:26:50;;;;;;;56.17;28.73;;;;;;;1.03;75.49;97513.22;2161751;82;21504;-81
2021/01/14 02:29:51;;;;;;;55.80;29.87;;;;;;;0.96;75.52;97511.31;2160971;82;21280;-79
2021/01/14 02:32:53;;;;;;;56.10;30.67;;;;;;;0.98;75.62;97516.08;2161667;82;21444;-79
2021/01/14 02:35:54;;;;;;;54.90;30.17;;;;;;;0.98;75.59;97505.80;2161392;82;21241;-81
2021/01/14 02:38:55;;;;;;;61.23;32.50;;;;;;;0.98;75.61;97510.94;2161904;82;21118;-81
2021/01/14 02:41:56;;;;;;;53.93;30.90;;;;;;;0.98;75.63;97510.06;2161550;82;21261;-80
2021/01/14 02:44:57;;;;;;;54.63;29.63;;;;;;;0.96;75.62;97499.75;2161397;82;21285;-79
2021/01/14 02:48:01;;;;;;;57.70;30.83;;;;;;;0.96;75.63;97506.17;2161320;82;21229;-79
2021/01/14 02:51:02;;;;;;;55.67;29.60;;;;;;;0.95;75.69;97502.73;2161704;82;21284;-81
2021/01/14 02:54:03;;;;;;;56.90;31.70;;;;;;;1.07;76.15;97507.75;2173424;82;21284;-80
2021/01/14 02:57:05;;;;;;;52.50;29.70;;;;;;;1.06;75.67;97507.30;2170271;82;21203;-79
2021/01/14 03:00:06;;;;;;;47.73;28.33;;;;;;;1.05;75.63;97511.56;2162024;82;21269;-81
2021/01/14 03:03:07;;;;;;;52.23;29.73;;;;;;;1.07;75.64;97507.75;2162124;82;21253;-80
2021/01/14 03:06:08;;;;;;;53.63;30.43;;;;;;;1.05;75.63;97509.41;2161315;82;21253;-81
2021/01/14 03:09:10;;;;;;;56.13;30.30;;;;;;;1.04;75.74;97500.83;2161221;82;21563;-79
2021/01/14 03:12:11;;;;;;;59.13;31.67;;;;;;;1.05;75.66;97501.70;2161777;82;21265;-79
2021/01/14 03:15:12;;;;;;;63.87;33.50;;;;;;;1.05;75.70;97496.56;2162016;82;21138;-80
2021/01/14 03:18:17;;;;;;;55.27;32.90;;;;;;;1.07;75.71;97494.90;2161743;82;21261;-81
2021/01/14 03:21:18;;;;;;;53.10;31.43;;;;;;;1.07;75.73;97493.20;2162156;82;21249;-81
2021/01/14 03:24:19;;;;;;;57.50;31.20;;;;;;;1.06;75.68;97495.31;2161845;82;21147;-81
2021/01/14 03:27:21;;;;;;;49.67;30.67;;;;;;;1.08;75.78;97496.23;2161558;82;21523;-82
2021/01/14 03:30:22;;;;;;;55.23;32.20;;;;;;;1.09;75.73;97495.40;2161752;82;21305;-81
2021/01/14 03:33:23;;;;;;;60.60;32.83;;;;;;;1.10;75.78;97487.27;2161352;82;21245;-85
2021/01/14 03:36:24;;;;;;;51.77;30.23;;;;;;;1.10;75.75;97492.41;2161533;82;21147;-82
2021/01/14 03:39:25;;;;;;;53.43;30.60;;;;;;;1.12;75.75;97485.62;2161535;82;21099;-81
2021/01/14 03:42:26;;;;;;;54.10;30.77;;;;;;;1.14;75.71;97484.83;2161175;82;21302;-80
2021/01/14 03:45:29;;;;;;;46.23;27.20;;;;;;;1.15;75.68;97489.14;2161304;82;21245;-82
2021/01/14 03:48:31;;;;;;;44.13;26.77;;;;;;;1.12;75.49;97486.48;2160709;82;21320;-81
2021/01/14 03:51:32;;;;;;;47.50;26.43;;;;;;;1.10;75.55;97488.14;2160410;81;21139;-79
2021/01/14 03:54:33;;;;;;;46.27;27.03;;;;;;;1.10;75.58;97495.86;2148174;83;21179;-80
2021/01/14 03:57:34;;;;;;;43.27;26.57;;;;;;;1.10;75.63;97496.27;2148350;83;21139;-80
2021/01/14 04:00:35;;;;;;;45.20;26.60;;;;;;;1.07;75.51;97494.48;2151466;83;21158;-83
2021/01/14 04:03:36;;;;;;;45.43;26.87;;;;;;;1.07;75.59;97486.78;2151467;82;21401;-81
2021/01/14 04:06:37;;;;;;;40.83;25.60;;;;;;;1.09;75.70;97491.95;2150821;82;21143;-80
2021/01/14 04:09:38;;;;;;;41.33;23.73;;;;;;;1.10;75.60;97500.99;2150173;82;21179;-81
2021/01/14 04:12:39;;;;;;;40.93;24.40;;;;;;;1.09;75.60;97501.83;2150563;83;21409;-83
2021/01/14 04:15:40;;;;;;;43.33;25.37;;;;;;;1.09;75.59;97498.38;2150716;82;21087;-79
2021/01/14 04:18:41;;;;;;;39.53;23.43;;;;;;;1.11;75.56;97496.72;2150451;83;21134;-79
2021/01/14 04:21:42;;;;;;;40.20;24.70;;;;;;;1.09;75.47;97499.25;2150137;83;21138;-79
2021/01/14 04:24:43;;;;;;;40.13;23.97;;;;;;;1.09;75.51;97499.25;2150657;83;21385;-82
2021/01/14 04:27:44;;;;;;;43.63;25.83;;;;;;;1.09;75.44;97504.80;2150285;83;21167;-79
2021/01/14 04:30:46;;;;;;;39.90;22.93;;;;;;;1.09;75.49;97501.83;2150608;83;21139;-78
2021/01/14 04:33:47;;;;;;;39.03;24.90;;;;;;;1.07;75.47;97502.20;2150724;82;21489;-78
2021/01/14 04:36:48;;;;;;;41.03;25.20;;;;;;;1.06;75.46;97503.44;2150323;83;21139;-79
2021/01/14 04:39:49;;;;;;;42.57;24.83;;;;;;;1.06;75.51;97511.15;2150101;82;21151;-77
2021/01/14 04:42:50;;;;;;;41.83;24.30;;;;;;;1.04;75.39;97507.66;2149919;83;21092;-77
2021/01/14 04:45:52;;;;;;;37.27;23.03;;;;;;;1.03;75.36;97507.20;2149027;83;21426;-77
2021/01/14 04:48:53;;;;;;;41.33;24.90;;;;;;;1.01;75.39;97509.73;2148649;82;21527;-78
2021/01/14 04:51:54;;;;;;;41.77;26.17;;;;;;;0.95;75.45;97504.42;2148219;82;21281;-79
2021/01/14 04:54:55;;;;;;;40.33;24.00;;;;;;;0.93;75.49;97503.10;2148197;83;21262;-78
2021/01/14 04:57:56;;;;;;;44.03;25.63;;;;;;;0.92;75.33;97513.34;2147601;83;21319;-80
2021/01/14 05:00:57;;;;;;;45.23;25.00;;;;;;;0.84;75.36;97511.80;2147862;83;21242;-80
2021/01/14 05:03:59;;;;;;;41.77;25.20;;;;;;;0.86;75.44;97512.72;2147258;83;21827;-79
2021/01/14 05:07:00;;;;;;;44.63;25.77;;;;;;;0.83;75.49;97515.61;2147441;83;21257;-79
2021/01/14 05:10:01;;;;;;;40.00;24.23;;;;;;;0.81;75.53;97508.28;2147818;83;21329;-79
2021/01/14 05:13:02;;;;;;;40.37;24.33;;;;;;;0.81;75.51;97510.84;2148812;83;21261;-79
2021/01/14 05:16:03;;;;;;;42.27;26.00;;;;;;;0.82;75.64;97513.45;2148905;83;21429;-79
2021/01/14 05:19:05;;;;;;;45.97;25.67;;;;;;;0.87;75.66;97520.05;2148038;83;21261;-80
2021/01/14 05:22:06;;;;;;;41.87;25.13;;;;;;;0.90;75.64;97522.70;2148639;83;21607;-79
2021/01/14 05:25:07;;;;;;;44.00;26.00;;;;;;;0.91;75.59;97524.44;2148813;83;21103;-78
2021/01/14 05:28:08;;;;;;;42.03;24.87;;;;;;;0.93;75.60;97525.36;2148420;83;21610;-80
2021/01/14 05:31:09;;;;;;;43.63;24.20;;;;;;;0.91;75.58;97523.16;2147955;83;21587;-79
2021/01/14 05:34:10;;;;;;;35.63;23.87;;;;;;;0.93;75.68;97526.64;2147958;83;21261;-79
2021/01/14 05:37:12;;;;;;;44.63;25.97;;;;;;;0.95;75.66;97538.70;2148896;83;21284;-80
2021/01/14 05:40:13;;;;;;;47.07;27.20;;;;;;;0.98;75.64;97536.63;2149227;83;21131;-80
2021/01/14 05:43:14;;;;;;;43.63;25.83;;;;;;;0.99;75.60;97544.80;2149437;83;21297;-79
2021/01/14 05:46:15;;;;;;;45.83;25.77;;;;;;;0.93;75.46;97544.21;2148816;83;21133;-77
2021/01/14 05:49:16;;;;;;;43.13;25.03;;;;;;;0.95;75.76;97542.55;2148672;83;21305;-79
2021/01/14 05:52:17;;;;;;;36.50;24.07;;;;;;;1.00;75.68;97546.54;2151865;82;21292;-77
2021/01/14 05:55:18;;;;;;;48.87;26.40;;;;;;;1.01;75.66;97546.13;2159817;82;21261;-78
2021/01/14 05:58:19;;;;;;;44.37;28.70;;;;;;;0.99;75.61;97552.92;2158683;82;21598;-82
2021/01/14 06:01:21;;;;;;;53.03;28.90;;;;;;;1.03;75.63;97554.34;2157809;82;21246;-80
2021/01/14 06:04:22;;;;;;;52.63;28.77;;;;;;;1.01;75.40;97556.41;2157246;82;21249;-80
2021/01/14 06:07:23;;;;;;;54.97;30.93;;;;;;;0.97;75.46;97555.86;2158077;82;21575;-77
2021/01/14 06:10:24;;;;;;;64.63;37.83;;;;;;;0.97;75.37;97561.00;2158816;82;21321;-82
2021/01/14 06:13:26;;;;;;;74.63;41.83;;;;;;;0.93;75.35;97563.89;2158235;82;21280;-79
2021/01/14 06:16:29;;;;;;;68.53;39.50;;;;;;;0.87;75.33;97574.86;2159104;82;21265;-79
2021/01/14 06:19:31;;;;;;;74.63;40.43;;;;;;;0.82;75.46;97579.38;2159612;82;21257;-80
2021/01/14 06:22:32;;;;;;;71.03;40.37;;;;;;;0.81;75.56;97586.63;2159411;82;21600;-78
2021/01/14 06:25:33;;;;;;;72.13;41.47;;;;;;;0.79;75.50;97585.30;2159105;82;21253;-79
2021/01/14 06:28:34;;;;;;;79.30;45.77;;;;;;;0.77;75.63;97589.52;2159354;82;21312;-79
2021/01/14 06:31:35;;;;;;;81.90;47.27;;;;;;;0.79;75.72;97593.41;2159541;82;21292;-79
2021/01/14 06:34:37;;;;;;;72.53;40.93;;;;;;;0.81;75.79;97594.33;2159912;82;21130;-80
2021/01/14 06:37:38;;;;;;;71.57;37.67;;;;;;;0.84;75.78;97600.84;2160412;82;21107;-80
2021/01/14 06:40:39;;;;;;;72.27;38.03;;;;;;;0.88;75.80;97604.00;2159386;82;21620;-80
2021/01/14 06:43:40;;;;;;;58.63;32.63;;;;;;;0.87;75.62;97609.95;2159751;82;21262;-79
2021/01/14 06:46:41;;;;;;;59.00;32.37;;;;;;;0.84;75.62;97614.97;2160619;82;21244;-79
2021/01/14 06:49:42;;;;;;;61.00;33.83;;;;;;;0.81;75.59;97617.45;2159597;82;21467;-81
2021/01/14 06:52:43;;;;;;;63.47;37.03;;;;;;;0.79;75.73;97625.52;2157187;81;21139;-78
2021/01/14 06:55:44;;;;;;;64.57;37.00;;;;;;;0.98;76.86;97625.28;2149021;82;21301;-79
2021/01/14 06:58:45;;;;;;;65.67;36.43;;;;;;;1.02;75.93;97633.53;2149152;83;21253;-78
2021/01/14 07:01:46;;;;;;;56.00;34.07;;;;;;;1.00;75.70;97644.59;2148875;83;21139;-78
2021/01/14 07:04:48;;;;;;;60.83;36.30;;;;;;;0.96;75.65;97646.20;2148045;82;21234;-79
2021/01/14 07:07:49;;;;;;;68.27;38.30;;;;;;;0.95;75.77;97646.61;2148627;83;21286;-79
2021/01/14 07:10:50;;;;;;;82.77;43.30;;;;;;;1.04;75.82;97656.71;2149128;82;21167;-80
2021/01/14 07:13:51;;;;;;;73.17;39.73;;;;;;;1.06;75.69;97656.34;2149066;83;21107;-80
2021/01/14 07:16:52;;;;;;;86.63;40.00;;;;;;;1.10;75.73;97664.60;2148923;83;21139;-79
2021/01/14 07:19:53;;;;;;;56.47;30.60;;;;;;;1.10;75.55;97671.90;2148817;83;21131;-79
2021/01/14 07:22:54;;;;;;;56.17;32.23;;;;;;;1.05;75.41;97673.46;2148709;83;21493;-79
2021/01/14 07:25:55;;;;;;;57.63;32.67;;;;;;;0.99;75.51;97676.26;2149711;83;21278;-79
2021/01/14 07:28:57;;;;;;;66.27;35.23;;;;;;;0.98;75.58;97692.09;2149597;83;21325;-80
2021/01/14 07:31:58;;;;;;;67.80;35.13;;;;;;;1.02;75.72;97695.21;2149144;83;21977;-79
2021/01/14 07:34:59;;;;;;;76.23;39.70;;;;;;;1.08;75.62;97697.97;2149214;82;21138;-79
2021/01/14 07:38:00;;;;;;;69.30;40.40;;;;;;;1.12;75.58;97699.80;2148524;83;21127;-79
2021/01/14 07:41:01;;;;;;;91.67;53.17;;;;;;;1.14;75.41;97702.42;2148004;83;21131;-78
2021/01/14 07:44:02;;;;;;;64.37;35.77;;;;;;;1.13;75.40;97709.26;2149719;83;21502;-79
2021/01/14 07:47:03;;;;;;;79.13;42.80;;;;;;;1.15;75.25;97710.17;2148961;83;21123;-79
2021/01/14 07:50:04;;;;;;;65.10;35.07;;;;;;;1.19;75.17;97713.30;2149159;83;21297;-78
2021/01/14 07:53:05;;;;;;;137.63;51.73;;;;;;;1.34;75.17;97719.72;2148200;82;21965;-79
2021/01/14 07:56:06;;;;;;;122.70;52.97;;;;;;;1.40;74.75;97718.62;2149070;83;21134;-79
2021/01/14 07:59:07;;;;;;;84.00;42.10;;;;;;;1.37;74.70;97728.81;2149376;83;21131;-80
2021/01/14 08:02:11;;;;;;;57.67;33.97;;;;;;;1.37;74.93;97737.81;2148598;83;21266;-78
2021/01/14 08:05:12;;;;;;;64.00;36.10;;;;;;;1.34;74.78;97742.45;2147961;82;21576;-79
2021/01/14 08:08:13;;;;;;;77.43;40.93;;;;;;;1.27;74.84;97753.37;2148599;82;21123;-79
2021/01/14 08:11:15;;;;;;;79.73;43.50;;;;;;;1.26;74.97;97755.08;2149591;83;21135;-79
2021/01/14 08:14:17;;;;;;;70.23;39.87;;;;;;;1.28;74.95;97762.42;2149431;83;21741;-78
2021/01/14 08:17:18;;;;;;;80.70;43.33;;;;;;;1.35;75.03;97756.18;2149364;83;21269;-78
2021/01/14 08:20:19;;;;;;;79.23;41.77;;;;;;;1.37;74.81;97769.95;2148947;82;21253;-79
2021/01/14 08:23:20;;;;;;;100.03;54.43;;;;;;;1.34;74.86;97773.72;2149035;82;21123;-79
2021/01/14 08:26:21;;;;;;;89.50;51.13;;;;;;;1.29;75.01;97781.29;2149540;82;21266;-80
2021/01/14 08:29:22;;;;;;;71.50;41.17;;;;;;;1.22;75.10;97784.08;2149352;83;21328;-78
2021/01/14 08:32:23;;;;;;;64.03;37.53;;;;;;;1.19;75.19;97785.27;2148290;82;21683;-77
2021/01/14 08:35:24;;;;;;;63.33;36.93;;;;;;;1.18;75.31;97795.09;2148620;82;21135;-77
2021/01/14 08:38:26;;;;;;;60.57;35.77;;;;;;;1.16;75.46;97794.58;2149198;83;21420;-79
2021/01/14 08:41:27;;;;;;;62.63;37.63;;;;;;;1.24;75.42;97797.86;2147735;82;21253;-80
2021/01/14 08:44:28;;;;;;;73.20;37.90;;;;;;;1.36;75.18;97806.77;2147842;82;21273;-79
2021/01/14 08:47:29;;;;;;;69.87;39.40;;;;;;;1.37;75.04;97818.81;2149229;83;21281;-79
2021/01/14 08:50:30;;;;;;;66.40;39.37;;;;;;;1.45;75.01;97823.78;2149554;83;21370;-79
2021/01/14 08:53:32;;;;;;;64.47;40.10;;;;;;;1.56;74.97;97821.13;2150059;82;21191;-80
2021/01/14 08:56:33;;;;;;;68.47;40.93;;;;;;;1.61;74.76;97836.28;2149485;83;21127;-80
2021/01/14 08:59:34;;;;;;;91.90;53.23;;;;;;;1.71;74.85;97834.45;2149993;83;21123;-80
2021/01/14 09:02:35;;;;;;;78.23;46.83;;;;;;;1.90;74.45;97827.77;2147994;83;21285;-79
2021/01/14 09:05:36;;;;;;;59.83;39.43;;;;;;;2.01;73.98;97837.50;2148126;83;21130;-80
2021/01/14 09:08:39;;;;;;;61.53;37.13;;;;;;;1.98;73.72;97848.99;2148491;83;21868;-80
2021/01/14 09:11:40;;;;;;;63.50;39.63;;;;;;;1.78;73.72;97855.70;2146894;83;21146;-78
2021/01/14 09:14:41;;;;;;;61.33;38.57;;;;;;;1.57;74.16;97865.30;2149155;83;21127;-80
2021/01/14 09:17:42;;;;;;;58.93;36.53;;;;;;;1.46;74.53;97873.97;2148931;83;21503;-79
2021/01/14 09:20:43;;;;;;;67.07;36.57;;;;;;;1.55;74.59;97875.95;2149732;83;21131;-80
2021/01/14 09:23:44;;;;;;;59.00;32.63;;;;;;;1.60;74.33;97880.84;2149154;83;21123;-80
2021/01/14 09:26:45;;;;;;;64.97;37.10;;;;;;;1.74;74.19;97885.16;2150078;83;21162;-79
2021/01/14 09:29:46;;;;;;;53.67;30.17;;;;;;;1.84;73.71;97890.63;2149898;83;21643;-79
2021/01/14 09:32:47;;;;;;;54.20;30.70;;;;;;;1.85;73.07;97891.09;2149616;83;21134;-80
2021/01/14 09:35:48;;;;;;;66.33;35.47;;;;;;;1.83;72.40;97899.59;2149281;83;21253;-80
2021/01/14 09:38:50;;;;;;;34.63;21.50;;;;;;;1.76;72.32;97904.09;2149991;83;21461;-80
2021/01/14 09:41:51;;;;;;;23.57;15.83;;;;;;;1.99;71.43;97903.09;2136564;83;21611;-80
2021/01/14 09:44:53;;;;;;;25.30;14.17;;;;;;;2.26;70.69;97909.88;2149505;83;21138;-78
2021/01/14 09:47:54;;;;;;;21.73;15.90;;;;;;;2.38;70.31;97916.27;2148781;83;21139;-78
2021/01/14 09:50:55;;;;;;;27.63;17.77;;;;;;;2.50;70.01;97917.03;2148676;82;21305;-79
2021/01/14 09:53:56;;;;;;;30.00;19.43;;;;;;;2.61;69.65;97919.94;2154785;82;21157;-78
2021/01/14 09:56:57;;;;;;;32.33;19.10;;;;;;;2.70;68.62;97926.64;2162482;82;21238;-81
2021/01/14 09:59:58;;;;;;;30.57;22.73;;;;;;;2.68;68.87;97928.30;2160266;82;21444;-79
2021/01/14 10:03:00;;;;;;;26.53;18.07;;;;;;;2.65;68.68;97923.06;2159889;82;21472;-80
2021/01/14 10:06:01;;;;;;;39.93;26.13;;;;;;;2.54;68.21;97932.62;2159697;82;21256;-79
2021/01/14 10:09:02;;;;;;;155.90;60.67;;;;;;;2.34;68.70;97944.05;2160317;82;21292;-79
2021/01/14 10:12:03;;;;;;;134.30;60.00;;;;;;;2.40;68.87;97953.23;2160049;82;21257;-79
2021/01/14 10:15:04;;;;;;;22.73;15.13;;;;;;;2.27;69.28;97952.83;2159657;82;21266;-77
2021/01/14 10:18:06;;;;;;;22.23;15.00;;;;;;;2.13;69.40;97969.15;2158795;82;21107;-78
2021/01/14 10:21:07;;;;;;;20.87;15.13;;;;;;;2.17;70.02;97968.00;2157278;82;21604;-78
2021/01/14 10:24:08;;;;;;;20.37;14.33;;;;;;;2.34;69.93;97971.09;2157527;82;21316;-78
2021/01/14 10:27:09;;;;;;;34.77;22.43;;;;;;;2.48;69.55;97977.52;2157582;82;21249;-79
2021/01/14 10:30:10;;;;;;;20.93;13.93;;;;;;;2.67;69.46;97974.22;2158459;82;21324;-79
2021/01/14 10:33:12;;;;;;;31.13;19.10;;;;;;;2.84;68.78;97984.59;2158603;82;21257;-78
2021/01/14 10:36:14;;;;;;;19.33;13.53;;;;;;;3.04;68.82;97975.71;2159040;82;21273;-78
2021/01/14 10:39:17;;;;;;;19.20;12.70;;;;;;;3.31;67.67;97980.73;2158747;82;21610;-78
2021/01/14 10:42:18;;;;;;;20.70;13.70;;;;;;;3.18;67.09;97987.27;2158293;82;21292;-78
2021/01/14 10:45:19;;;;;;;43.10;21.20;;;;;;;2.83;67.33;97985.42;2157850;82;22062;-78
2021/01/14 10:48:21;;;;;;;23.33;14.47;;;;;;;2.53;68.05;97991.83;2157771;82;21265;-79
2021/01/14 10:51:22;;;;;;;18.20;12.57;;;;;;;2.25;68.58;98000.42;2157267;82;21273;-76
2021/01/14 10:54:23;;;;;;;52.70;26.37;;;;;;;2.09;68.78;98005.92;2159333;82;21590;-76
2021/01/14 10:57:24;;;;;;;20.80;13.27;;;;;;;1.90;69.51;98011.77;2164354;81;21280;-78
2021/01/14 11:00:25;;;;;;;15.43;11.03;;;;;;;1.78;70.08;98019.09;2159968;82;21142;-77
2021/01/14 11:03:27;;;;;;;19.23;11.03;;;;;;;1.65;69.42;98019.48;2158424;82;21269;-78
2021/01/14 11:06:28;;;;;;;13.33;9.43;;;;;;;1.45;69.40;98023.08;2159145;82;21245;-79
2021/01/14 11:09:29;;;;;;;18.20;11.07;;;;;;;1.47;69.29;98027.45;2159414;82;21297;-80
2021/01/14 11:12:30;;;;;;;23.43;12.23;;;;;;;1.52;69.12;98032.75;2158880;82;21758;-78
2021/01/14 11:15:31;;;;;;;44.40;19.47;;;;;;;1.58;69.30;98033.84;2158955;82;21127;-79
2021/01/14 11:18:32;;;;;;;18.97;12.33;;;;;;;1.55;69.55;98034.14;2159160;82;21249;-79
2021/01/14 11:21:34;;;;;;;19.13;12.70;;;;;;;1.51;68.97;98033.58;2158909;82;21265;-78
2021/01/14 11:24:35;;;;;;;20.13;12.87;;;;;;;1.60;68.26;98029.61;2158493;82;21249;-80
2021/01/14 11:27:36;;;;;;;27.23;13.63;;;;;;;1.69;67.90;98034.20;2158476;82;21253;-77
2021/01/14 11:30:37;;;;;;;21.37;14.27;;;;;;;1.83;67.66;98040.70;2158281;82;21503;-79
2021/01/14 11:33:38;;;;;;;19.40;12.50;;;;;;;2.09;66.90;98030.38;2159160;82;21249;-78
2021/01/14 11:36:39;;;;;;;21.17;13.87;;;;;;;2.40;65.68;98036.95;2158296;82;21720;-79
2021/01/14 11:39:40;;;;;;;27.57;16.10;;;;;;;2.43;65.65;98041.32;2159174;82;21265;-79
2021/01/14 11:42:41;;;;;;;22.63;13.67;;;;;;;2.36;65.96;98054.42;2158964;82;21894;-77
2021/01/14 11:45:42;;;;;;;18.23;12.00;;;;;;;2.23;66.67;98050.59;2158898;82;21253;-77
2021/01/14 11:48:45;;;;;;;19.13;14.33;;;;;;;2.14;65.65;98050.30;2158701;82;21296;-77
2021/01/14 11:51:46;;;;;;;36.83;17.60;;;;;;;1.89;66.02;98057.63;2157958;82;21180;-77
2021/01/14 11:54:47;;;;;;;27.00;15.47;;;;;;;1.78;66.43;98067.98;2162521;82;21860;-77
2021/01/14 11:57:48;;;;;;;38.33;19.43;;;;;;;1.73;66.74;98069.49;2168585;82;21287;-79
2021/01/14 12:00:49;;;;;;;27.33;15.87;;;;;;;1.78;67.37;98069.68;2169448;82;21544;-78
2021/01/14 12:03:51;;;;;;;17.30;12.47;;;;;;;1.81;66.56;98074.52;2158942;82;21264;-78
2021/01/14 12:06:52;;;;;;;16.93;12.47;;;;;;;1.76;66.93;98077.34;2158989;82;21662;-78
2021/01/14 12:09:53;;;;;;;22.53;14.67;;;;;;;1.74;67.37;98082.86;2158429;82;21956;-78
2021/01/14 12:12:54;;;;;;;25.00;15.67;;;;;;;1.71;67.14;98079.27;2158448;82;21139;-78
2021/01/14 12:15:55;;;;;;;28.47;16.53;;;;;;;1.68;67.65;98083.90;2158496;82;21130;-76
2021/01/14 12:18:56;;;;;;;27.93;18.03;;;;;;;1.72;67.75;98092.59;2158151;82;21887;-78
2021/01/14 12:21:57;;;;;;;27.17;15.90;;;;;;;1.73;68.40;98096.51;2157707;82;21323;-78
2021/01/14 12:24:58;;;;;;;32.50;18.53;;;;;;;1.73;68.33;98095.63;2158109;82;21276;-79
2021/01/14 12:27:59;;;;;;;31.17;18.47;;;;;;;1.75;68.58;98103.03;2157830;82;21178;-79
2021/01/14 12:31:01;;;;;;;29.23;18.60;;;;;;;1.77;68.05;98106.12;2157782;82;21147;-77
2021/01/14 12:34:03;;;;;;;29.87;18.47;;;;;;;1.71;68.18;98116.16;2157136;82;21594;-78
2021/01/14 12:37:04;;;;;;;27.93;18.20;;;;;;;1.62;68.49;98114.56;2157573;82;21248;-78
2021/01/14 12:40:05;;;;;;;30.90;20.37;;;;;;;1.56;68.77;98122.94;2158649;82;21126;-77
2021/01/14 12:43:07;;;;;;;33.83;18.80;;;;;;;1.41;69.02;98128.82;2157432;82;21250;-79
2021/01/14 12:46:08;;;;;;;33.77;20.77;;;;;;;1.24;69.33;98133.34;2156826;82;21584;-79
2021/01/14 12:49:09;;;;;;;35.67;19.97;;;;;;;1.12;69.91;98132.02;2156441;82;21899;-77
2021/01/14 12:52:10;;;;;;;34.33;21.10;;;;;;;1.07;70.37;98136.11;2156894;82;21256;-77
2021/01/14 12:55:11;;;;;;;31.20;20.10;;;;;;;1.01;71.13;98140.62;2152118;82;21281;-78
2021/01/14 12:58:13;;;;;;;43.97;24.97;;;;;;;0.94;71.03;98142.48;2147506;83;21132;-78
2021/01/14 13:01:14;;;;;;;66.30;34.43;;;;;;;0.88;70.30;98149.55;2146637;83;21269;-78
2021/01/14 13:04:16;;;;;;;71.73;35.50;;;;;;;0.76;70.32;98161.02;2146362;83;21571;-77
2021/01/14 13:07:17;;;;;;;49.70;29.03;;;;;;;0.61;70.71;98158.31;2145542;83;21262;-77
2021/01/14 13:10:18;;;;;;;63.13;33.60;;;;;;;0.55;70.96;98168.34;2145493;83;21163;-77
2021/01/14 13:13:19;;;;;;;61.33;33.03;;;;;;;0.44;71.46;98172.17;2147594;83;21659;-77
2021/01/14 13:16:21;;;;;;;70.13;34.80;;;;;;;0.26;71.71;98180.41;2147000;83;21761;-77
2021/01/14 13:19:22;;;;;;;75.47;37.57;;;;;;;0.17;72.05;98174.89;2147429;83;21591;-78
2021/01/14 13:22:23;;;;;;;71.57;36.53;;;;;;;0.13;72.20;98185.84;2147447;83;21261;-77
2021/01/14 13:25:24;;;;;;;65.87;35.23;;;;;;;0.08;72.27;98187.34;2147915;83;21265;-77
2021/01/14 13:28:25;;;;;;;77.67;38.00;;;;;;;0.02;72.81;98190.94;2147419;82;21262;-77
2021/01/14 13:31:26;;;;;;;77.37;39.03;;;;;;;-0.03;73.47;98191.58;2147903;83;21245;-75
2021/01/14 13:34:27;;;;;;;72.00;37.57;;;;;;;-0.10;73.61;98188.28;2147911;83;21266;-76
2021/01/14 13:37:28;;;;;;;69.03;36.83;;;;;;;-0.18;74.14;98195.18;2147407;83;21763;-76
2021/01/14 13:40:29;;;;;;;67.30;36.53;;;;;;;-0.21;74.35;98201.05;2147936;83;21274;-74
2021/01/14 13:43:30;;;;;;;72.87;37.57;;;;;;;-0.20;74.44;98200.25;2146565;83;21246;-78
2021/01/14 13:46:32;;;;;;;77.27;39.23;;;;;;;-0.20;74.60;98203.22;2147331;83;21249;-77
2021/01/14 13:49:33;;;;;;;88.67;44.23;;;;;;;-0.21;74.81;98204.91;2148423;83;21584;-76
2021/01/14 13:52:34;;;;;;;81.67;40.53;;;;;;;-0.23;74.98;98206.93;2149081;83;21262;-76
2021/01/14 13:55:37;;;;;;;65.27;36.23;;;;;;;-0.26;75.01;98204.23;2154695;82;21276;-77
2021/01/14 13:58:38;;;;;;;73.77;37.83;;;;;;;-0.25;74.71;98200.45;2158139;82;21262;-75
2021/01/14 14:01:39;;;;;;;70.63;36.47;;;;;;;-0.34;74.78;98221.84;2157770;82;21249;-76